createdAt,value
2023-04-15T00:02:00.246Z,13.00
2023-04-15T00:04:28.478Z,10.88
2023-04-15T00:06:56.016Z,12.43
2023-04-15T00:09:24.037Z,10.45
2023-04-15T00:11:51.562Z,11.23
2023-04-15T00:14:19.235Z,12.93
2023-04-15T00:16:46.993Z,10.63
2023-04-15T00:19:14.766Z,10.68
2023-04-15T00:21:42.363Z,10.43
2023-04-15T00:24:09.939Z,11.40
2023-04-15T00:26:37.540Z,11.52
2023-04-15T00:29:05.320Z,11.55
2023-04-15T00:31:32.989Z,11.55
2023-04-15T00:34:02.051Z,11.43
2023-04-15T00:36:31.814Z,10.25
2023-04-15T00:38:59.703Z,10.45
2023-04-15T00:41:27.249Z,11.63
2023-04-15T00:43:54.793Z,10.93
2023-04-15T00:46:22.998Z,10.65
2023-04-15T00:48:51.295Z,9.60
2023-04-15T00:51:18.661Z,8.55
2023-04-15T00:53:46.276Z,7.68
2023-04-15T00:56:14.402Z,7.43
2023-04-15T00:58:42.096Z,6.63
2023-04-15T01:01:10.170Z,7.00
2023-04-15T01:03:37.923Z,7.80
2023-04-15T01:06:05.771Z,7.35
2023-04-15T01:08:33.304Z,6.95
2023-04-15T01:11:03.555Z,6.40
2023-04-15T01:13:31.267Z,5.95
2023-04-15T01:15:58.999Z,5.72
2023-04-15T01:18:27.280Z,6.40
2023-04-15T01:20:54.796Z,5.97
2023-04-15T01:23:25.057Z,5.60
2023-04-15T01:25:54.381Z,6.03
2023-04-15T01:28:22.131Z,5.78
2023-04-15T01:30:49.973Z,6.15
2023-04-15T01:33:17.640Z,6.10
2023-04-15T01:36:08.478Z,6.72
2023-04-15T01:38:36.940Z,6.15
2023-04-15T01:41:04.864Z,6.10
2023-04-15T01:43:36.373Z,5.95
2023-04-15T01:46:06.130Z,6.57
2023-04-15T01:48:35.350Z,7.03
2023-04-15T01:51:05.838Z,6.10
2023-04-15T01:53:34.918Z,7.28
2023-04-15T01:56:04.869Z,6.93
2023-04-15T01:58:33.820Z,7.80
2023-04-15T02:01:04.060Z,8.32
2023-04-15T02:03:34.050Z,8.20
2023-04-15T02:06:04.530Z,6.43
2023-04-15T02:08:33.572Z,7.20
2023-04-15T02:11:02.394Z,7.80
2023-04-15T02:13:31.402Z,7.20
2023-04-15T02:16:00.404Z,6.70
2023-04-15T02:18:29.266Z,6.68
2023-04-15T02:20:58.932Z,6.55
2023-04-15T02:23:28.032Z,6.90
2023-04-15T02:25:56.934Z,7.05
2023-04-15T02:28:25.878Z,7.00
2023-04-15T02:30:57.164Z,6.97
2023-04-15T02:33:26.137Z,7.50
2023-04-15T02:35:55.022Z,6.63
2023-04-15T02:38:23.916Z,6.68
2023-04-15T02:40:52.820Z,7.05
2023-04-15T02:43:21.776Z,8.02
2023-04-15T02:45:52.318Z,8.57
2023-04-15T02:48:22.447Z,7.82
2023-04-15T02:50:52.022Z,8.73
2023-04-15T02:53:21.355Z,8.10
2023-04-15T02:55:50.175Z,8.88
2023-04-15T02:58:19.044Z,8.40
2023-04-15T03:00:47.887Z,7.80
2023-04-15T03:03:16.811Z,7.38
2023-04-15T03:05:45.773Z,7.10
2023-04-15T03:08:15.041Z,6.10
2023-04-15T03:10:43.756Z,6.43
2023-04-15T03:13:12.630Z,6.85
2023-04-15T03:15:42.057Z,6.57
2023-04-15T03:18:10.934Z,5.70
2023-04-15T03:20:39.735Z,5.35
2023-04-15T03:23:08.902Z,6.38
2023-04-15T03:25:37.758Z,5.60
2023-04-15T03:28:08.915Z,5.75
2023-04-15T03:30:37.783Z,6.00
2023-04-15T03:33:06.982Z,5.90
2023-04-15T03:35:35.877Z,6.45
2023-04-15T03:38:04.796Z,5.28
2023-04-15T03:40:33.632Z,6.50
2023-04-15T03:43:02.586Z,5.53
2023-04-15T03:45:31.555Z,6.35
2023-04-15T03:48:15.609Z,5.88
2023-04-15T03:50:46.288Z,6.10
2023-04-15T03:53:16.015Z,6.40
2023-04-15T03:55:44.962Z,6.00
2023-04-15T03:58:13.861Z,6.10
2023-04-15T04:00:42.653Z,6.53
2023-04-15T04:03:11.914Z,6.45
2023-04-15T04:05:41.614Z,7.07
2023-04-15T04:08:13.844Z,7.00
2023-04-15T04:10:43.026Z,6.55
2023-04-15T04:13:11.834Z,6.78
2023-04-15T04:15:40.859Z,6.05
2023-04-15T04:18:10.025Z,7.40
2023-04-15T04:20:38.921Z,6.80
2023-04-15T04:23:07.754Z,5.63
2023-04-15T04:25:36.569Z,6.75
2023-04-15T04:28:05.550Z,6.03
2023-04-15T04:30:36.057Z,7.13
2023-04-15T04:35:35.027Z,5.65
2023-04-15T04:38:04.493Z,5.55
2023-04-15T04:40:33.327Z,6.13
2023-04-15T04:43:02.316Z,6.00
2023-04-15T04:45:31.391Z,5.90
2023-04-15T04:48:00.566Z,6.55
2023-04-15T04:50:29.570Z,7.07
2023-04-15T04:52:58.301Z,6.47
2023-04-15T04:55:27.319Z,6.40
2023-04-15T04:57:56.270Z,6.70
2023-04-15T05:00:25.449Z,7.88
2023-04-15T05:02:54.469Z,7.43
2023-04-15T05:05:23.378Z,7.68
2023-04-15T05:07:52.089Z,8.73
2023-04-15T05:10:21.150Z,7.97
2023-04-15T05:12:50.488Z,6.97
2023-04-15T05:15:19.259Z,7.15
2023-04-15T05:17:48.064Z,7.50
2023-04-15T05:20:17.152Z,7.18
2023-04-15T05:22:45.882Z,6.85
2023-04-15T05:25:14.664Z,7.00
2023-04-15T05:27:43.407Z,6.75
2023-04-15T05:30:13.538Z,8.07
2023-04-15T05:32:42.571Z,8.07
2023-04-15T05:35:11.642Z,6.97
2023-04-15T05:37:40.626Z,7.05
2023-04-15T05:40:10.702Z,6.55
2023-04-15T05:42:39.439Z,7.63
2023-04-15T05:45:09.367Z,8.05
2023-04-15T05:47:38.353Z,7.38
2023-04-15T05:50:07.360Z,6.95
2023-04-15T05:52:36.074Z,7.10
2023-04-15T05:55:05.043Z,6.32
2023-04-15T05:57:34.016Z,6.72
2023-04-15T06:00:03.708Z,6.55
2023-04-15T06:02:38.657Z,6.65
2023-04-15T06:05:11.893Z,7.15
2023-04-15T06:07:41.697Z,8.95
2023-04-15T06:10:11.011Z,7.82
2023-04-15T06:12:39.827Z,8.93
2023-04-15T06:15:10.379Z,8.40
2023-04-15T06:17:39.168Z,8.93
2023-04-15T06:20:08.672Z,8.70
2023-04-15T06:22:41.760Z,9.75
2023-04-15T06:25:10.952Z,9.98
2023-04-15T06:27:39.741Z,9.25
2023-04-15T06:30:09.085Z,9.65
2023-04-15T06:32:38.076Z,11.15
2023-04-15T06:35:07.083Z,11.77
2023-04-15T06:37:36.449Z,10.50
2023-04-15T06:40:06.335Z,11.95
2023-04-15T06:42:36.782Z,10.30
2023-04-15T06:45:06.731Z,11.77
2023-04-15T06:47:35.548Z,11.17
2023-04-15T06:50:04.784Z,13.88
2023-04-15T06:52:33.454Z,13.52
2023-04-15T06:55:02.730Z,12.68
2023-04-15T06:57:33.742Z,13.98
2023-04-15T07:00:05.783Z,11.68
2023-04-15T07:02:34.622Z,13.88
2023-04-15T07:05:04.609Z,13.07
2023-04-15T07:07:33.402Z,12.35
2023-04-15T07:10:03.380Z,11.93
2023-04-15T07:12:32.315Z,12.43
2023-04-15T07:15:01.205Z,12.43
2023-04-15T07:17:30.076Z,10.20
2023-04-15T07:19:59.418Z,11.68
2023-04-15T07:22:28.108Z,12.35
2023-04-15T07:24:56.746Z,10.75
2023-04-15T07:27:25.998Z,9.65
2023-04-15T07:29:55.513Z,9.50
2023-04-15T07:32:24.234Z,9.30
2023-04-15T07:34:53.528Z,9.73
2023-04-15T07:37:24.726Z,9.32
2023-04-15T07:39:53.519Z,10.07
2023-04-15T07:42:22.503Z,10.15
2023-04-15T07:44:52.080Z,9.82
2023-04-15T07:47:21.317Z,10.07
2023-04-15T07:49:51.610Z,9.60
2023-04-15T07:52:20.498Z,9.80
2023-04-15T07:54:49.382Z,10.05
2023-04-15T07:57:18.400Z,9.80
2023-04-15T07:59:47.305Z,9.98
2023-04-15T08:02:16.305Z,8.40
2023-04-15T08:04:45.520Z,9.65
2023-04-15T08:07:14.745Z,8.40
2023-04-15T08:09:43.479Z,8.38
2023-04-15T08:12:13.434Z,7.97
2023-04-15T08:14:42.358Z,9.20
2023-04-15T08:17:11.556Z,8.30
2023-04-15T08:19:40.866Z,7.65
2023-04-15T08:22:17.300Z,7.13
2023-04-15T08:24:47.378Z,6.38
2023-04-15T08:27:16.112Z,7.82
2023-04-15T08:29:45.725Z,7.05
2023-04-15T08:32:14.987Z,6.93
2023-04-15T08:34:43.865Z,7.65
2023-04-15T08:37:12.853Z,6.82
2023-04-15T08:39:41.793Z,6.78
2023-04-15T08:42:17.881Z,7.10
2023-04-15T08:44:48.313Z,7.30
2023-04-15T08:47:22.544Z,7.13
2023-04-15T08:49:55.026Z,7.80
2023-04-15T08:52:26.423Z,5.85
2023-04-15T08:54:58.826Z,7.90
2023-04-15T08:57:29.077Z,7.07
2023-04-15T08:59:58.273Z,7.07
2023-04-15T09:02:27.588Z,7.18
2023-04-15T09:04:56.798Z,7.00
2023-04-15T09:07:25.668Z,7.82
2023-04-15T09:09:54.366Z,7.90
2023-04-15T09:12:23.065Z,7.38
2023-04-15T09:14:52.491Z,6.53
2023-04-15T09:17:21.846Z,8.70
2023-04-15T09:20:07.385Z,7.97
2023-04-15T09:22:37.948Z,9.25
2023-04-15T09:25:28.279Z,8.38
2023-04-15T09:27:59.039Z,7.95
2023-04-15T09:30:28.956Z,9.02
2023-04-15T09:33:00.146Z,8.68
2023-04-15T09:35:29.192Z,7.82
2023-04-15T09:38:15.835Z,8.00
2023-04-15T09:40:44.496Z,8.35
2023-04-15T09:43:13.664Z,8.15
2023-04-15T09:45:49.303Z,8.63
2023-04-15T09:48:22.894Z,8.40
2023-04-15T09:50:53.566Z,8.80
2023-04-15T09:53:23.842Z,7.57
2023-04-15T09:55:57.638Z,8.00
2023-04-15T09:58:28.244Z,7.32
2023-04-15T10:00:58.540Z,6.28
2023-04-15T10:03:30.027Z,7.65
2023-04-15T10:06:00.672Z,6.90
2023-04-15T10:08:32.863Z,7.60
2023-04-15T10:11:02.958Z,7.07
2023-04-15T10:13:37.286Z,6.87
2023-04-15T10:16:11.273Z,7.30
2023-04-15T10:18:44.495Z,6.90
2023-04-15T10:21:16.414Z,7.40
2023-04-15T10:23:48.784Z,8.52
2023-04-15T10:26:17.869Z,6.10
2023-04-15T10:28:49.696Z,7.53
2023-04-15T10:31:20.016Z,6.85
2023-04-15T10:33:49.772Z,7.13
2023-04-15T10:36:19.873Z,7.60
2023-04-15T10:38:48.633Z,6.35
2023-04-15T10:41:29.836Z,6.88
2023-04-15T10:44:05.667Z,7.10
2023-04-15T10:46:42.393Z,5.50
2023-04-15T10:49:12.495Z,5.93
2023-04-15T10:51:46.363Z,6.90
2023-04-15T10:54:34.076Z,6.57
2023-04-15T10:57:22.375Z,6.38
2023-04-15T11:00:19.089Z,6.15
2023-04-15T11:02:53.827Z,6.05
2023-04-15T11:05:44.104Z,5.85
2023-04-15T11:08:13.604Z,6.37
2023-04-15T11:10:42.228Z,6.18
2023-04-15T11:13:11.013Z,5.82
2023-04-15T11:15:41.945Z,6.65
2023-04-15T11:18:17.877Z,5.63
2023-04-15T11:20:57.519Z,6.03
2023-04-15T11:23:34.218Z,5.32
2023-04-15T11:26:09.321Z,6.30
2023-04-15T11:28:41.158Z,5.35
2023-04-15T11:31:12.754Z,4.95
2023-04-15T11:34:01.591Z,5.78
2023-04-15T11:36:32.001Z,6.75
2023-04-15T11:39:01.136Z,4.35
2023-04-15T11:41:29.928Z,4.68
2023-04-15T11:43:58.680Z,4.60
2023-04-15T11:46:31.863Z,4.53
2023-04-15T11:49:00.971Z,4.78
2023-04-15T11:51:33.176Z,4.03
2023-04-15T11:56:28.312Z,4.82
2023-04-15T11:58:58.372Z,4.20
2023-04-15T12:01:43.675Z,4.90
2023-04-15T12:04:12.809Z,4.82
2023-04-15T12:06:41.307Z,4.40
2023-04-15T12:09:12.458Z,4.05
2023-04-15T12:11:47.081Z,4.55
2023-04-15T12:14:29.342Z,4.40
2023-04-15T12:17:02.064Z,3.95
2023-04-15T12:19:37.961Z,4.53
2023-04-15T12:22:10.182Z,4.47
2023-04-15T12:24:38.947Z,4.25
2023-04-15T12:27:13.028Z,3.75
2023-04-15T12:29:43.178Z,4.07
2023-04-15T12:32:21.295Z,3.53
2023-04-15T12:34:54.532Z,4.15
2023-04-15T12:37:22.160Z,3.88
2023-04-15T12:39:51.043Z,3.83
2023-04-15T12:42:18.887Z,3.40
2023-04-15T12:44:46.966Z,3.33
2023-04-15T12:47:14.621Z,3.80
2023-04-15T12:49:42.283Z,3.80
2023-04-15T12:52:09.799Z,4.55
2023-04-15T12:54:39.382Z,4.47
2023-04-15T12:57:07.522Z,4.30
2023-04-15T12:59:36.120Z,4.38
2023-04-15T13:02:04.046Z,3.60
2023-04-15T13:04:32.161Z,4.00
2023-04-15T13:07:00.009Z,4.43
2023-04-15T13:09:27.546Z,3.28
2023-04-15T13:11:56.117Z,4.35
2023-04-15T13:14:23.798Z,3.83
2023-04-15T13:16:51.318Z,3.60
2023-04-15T13:19:18.719Z,4.03
2023-04-15T13:21:46.396Z,4.70
2023-04-15T13:24:13.925Z,3.40
2023-04-15T13:26:41.972Z,3.80
2023-04-15T13:29:09.864Z,3.40
2023-04-15T13:31:37.571Z,3.88
2023-04-15T13:34:05.587Z,3.38
2023-04-15T13:36:33.393Z,4.03
2023-04-15T13:39:01.079Z,3.70
2023-04-15T13:41:28.653Z,3.78
2023-04-15T13:43:57.426Z,3.45
2023-04-15T13:46:26.150Z,3.75
2023-04-15T13:48:53.906Z,3.88
2023-04-15T13:51:21.385Z,3.88
2023-04-15T13:53:48.933Z,4.03
2023-04-15T13:56:16.630Z,4.05
2023-04-15T13:58:44.228Z,3.92
2023-04-15T14:01:11.858Z,3.75
2023-04-15T14:03:39.513Z,3.60
2023-04-15T14:06:07.290Z,3.08
2023-04-15T14:08:34.947Z,3.50
2023-04-15T14:11:02.381Z,3.50
2023-04-15T14:13:30.124Z,3.38
2023-04-15T14:15:57.744Z,3.60
2023-04-15T14:18:25.527Z,3.70
2023-04-15T14:20:52.956Z,3.92
2023-04-15T14:23:20.387Z,3.53
2023-04-15T14:25:48.592Z,4.03
2023-04-15T14:28:16.242Z,3.25
2023-04-15T14:30:44.849Z,2.95
2023-04-15T14:33:12.747Z,3.40
2023-04-15T14:35:40.362Z,5.05
2023-04-15T14:38:10.999Z,3.17
2023-04-15T14:40:39.116Z,3.70
2023-04-15T14:43:06.951Z,3.67
2023-04-15T14:45:35.335Z,3.45
2023-04-15T14:48:03.016Z,4.20
2023-04-15T14:50:30.782Z,4.05
2023-04-15T14:52:59.150Z,3.88
2023-04-15T14:55:26.765Z,3.63
2023-04-15T14:57:54.286Z,3.28
2023-04-15T15:00:21.897Z,3.65
2023-04-15T15:02:50.004Z,5.53
2023-04-15T15:05:17.676Z,4.85
2023-04-15T15:07:45.907Z,4.85
2023-04-15T15:10:13.619Z,4.55
2023-04-15T15:12:41.147Z,3.90
2023-04-15T15:15:25.016Z,4.35
2023-04-15T15:17:57.085Z,4.65
2023-04-15T15:20:25.428Z,3.80
2023-04-15T15:22:53.078Z,4.25
2023-04-15T15:25:20.715Z,3.92
2023-04-15T15:27:48.748Z,4.00
2023-04-15T15:30:16.330Z,4.10
2023-04-15T15:32:44.520Z,4.13
2023-04-15T15:35:12.743Z,3.50
2023-04-15T15:37:41.836Z,4.10
2023-04-15T15:40:09.610Z,4.03
2023-04-15T15:42:37.060Z,5.97
2023-04-15T15:45:05.050Z,5.93
2023-04-15T15:47:33.305Z,5.70
2023-04-15T15:50:03.041Z,5.38
2023-04-15T15:52:32.220Z,5.63
2023-04-15T15:54:59.709Z,5.22
2023-04-15T15:57:27.099Z,5.30
2023-04-15T16:00:01.989Z,5.40
2023-04-15T16:03:04.437Z,5.72
2023-04-15T16:05:25.576Z,5.22
2023-04-15T16:07:52.996Z,5.47
2023-04-15T16:10:20.533Z,5.78
2023-04-15T16:12:48.014Z,5.97
2023-04-15T16:15:15.696Z,5.30
2023-04-15T16:17:45.471Z,5.00
2023-04-15T16:20:12.962Z,5.65
2023-04-15T16:22:40.700Z,6.07
2023-04-15T16:25:08.567Z,4.68
2023-04-15T16:27:54.122Z,4.60
2023-04-15T16:30:24.125Z,4.30
2023-04-15T16:32:51.913Z,4.43
2023-04-15T16:35:19.959Z,3.92
2023-04-15T16:37:47.381Z,4.55
2023-04-15T16:40:15.154Z,3.40
2023-04-15T16:42:43.760Z,3.75
2023-04-15T16:45:11.502Z,3.75
2023-04-15T16:47:39.085Z,5.90
2023-04-15T16:50:07.345Z,3.38
2023-04-15T16:52:35.278Z,2.97
2023-04-15T16:55:03.346Z,7.70
2023-04-15T16:57:31.884Z,5.95
2023-04-15T17:00:18.394Z,3.35
2023-04-15T17:02:46.132Z,3.08
2023-04-15T17:05:13.644Z,3.00
2023-04-15T17:07:41.223Z,3.65
2023-04-15T17:10:08.908Z,3.22
2023-04-15T17:12:36.303Z,3.58
2023-04-15T17:15:03.975Z,3.67
2023-04-15T17:17:31.671Z,3.67
2023-04-15T17:19:59.234Z,4.10
2023-04-15T17:22:27.410Z,4.30
2023-04-15T17:24:55.612Z,4.80
2023-04-15T17:27:24.677Z,4.30
2023-04-15T17:29:52.475Z,5.20
2023-04-15T17:32:40.314Z,5.20
2023-04-15T17:35:27.702Z,6.38
2023-04-15T17:38:14.953Z,6.40
2023-04-15T17:41:02.504Z,7.35
2023-04-15T17:43:50.299Z,5.13
2023-04-15T17:46:37.902Z,5.60
2023-04-15T17:49:25.967Z,6.18
2023-04-15T17:52:14.330Z,6.78
2023-04-15T17:55:02.609Z,6.70
2023-04-15T17:57:50.400Z,6.72
2023-04-15T18:00:38.028Z,6.55
2023-04-15T18:03:27.329Z,7.28
2023-04-15T18:06:16.502Z,6.70
2023-04-15T18:09:04.258Z,8.15
2023-04-15T18:11:51.711Z,7.97
2023-04-15T18:14:39.004Z,7.85
2023-04-15T18:17:27.382Z,8.45
2023-04-15T18:20:14.983Z,7.95
2023-04-15T18:22:45.008Z,7.13
2023-04-15T18:25:12.566Z,7.40
2023-04-15T18:27:40.375Z,7.28
2023-04-15T18:30:10.325Z,6.75
2023-04-15T18:32:38.589Z,7.40
2023-04-15T18:35:06.672Z,7.68
2023-04-15T18:37:34.220Z,7.95
2023-04-15T18:40:01.922Z,8.45
2023-04-15T18:42:29.407Z,8.10
2023-04-15T18:44:56.910Z,7.53
2023-04-15T18:47:27.041Z,9.13
2023-04-15T18:49:54.782Z,9.83
2023-04-15T18:52:22.315Z,9.60
2023-04-15T18:54:49.822Z,11.43
2023-04-15T18:57:23.664Z,9.82
2023-04-15T18:59:59.685Z,10.82
2023-04-15T19:02:27.156Z,10.95
2023-04-15T19:04:54.684Z,11.25
2023-04-15T19:07:23.220Z,11.25
2023-04-15T19:09:50.597Z,11.98
2023-04-15T19:12:18.090Z,11.13
2023-04-15T19:14:45.558Z,10.65
2023-04-15T19:17:12.935Z,10.95
2023-04-15T19:19:40.462Z,14.50
2023-04-15T19:22:08.971Z,13.48
2023-04-15T19:24:36.630Z,18.23
2023-04-15T19:27:04.134Z,27.75
2023-04-15T19:29:31.487Z,35.75
2023-04-15T19:31:58.860Z,25.02
2023-04-15T19:34:26.341Z,16.80
2023-04-15T19:36:53.804Z,25.83
2023-04-15T19:39:21.292Z,43.83
2023-04-15T19:41:49.782Z,32.10
2023-04-15T19:44:17.329Z,30.25
2023-04-15T19:46:46.031Z,30.58
2023-04-15T19:49:13.512Z,37.25
2023-04-15T19:51:41.507Z,27.58
2023-04-15T19:54:09.074Z,22.02
2023-04-15T19:56:36.490Z,20.20
2023-04-15T19:59:04.377Z,20.88
2023-04-15T20:01:32.289Z,17.77
2023-04-15T20:04:00.205Z,17.23
2023-04-15T20:06:28.465Z,23.65
2023-04-15T20:08:56.052Z,31.50
2023-04-15T20:12:10.066Z,25.15
2023-04-15T20:14:17.790Z,19.10
2023-04-15T20:16:45.598Z,21.67
2023-04-15T20:19:13.873Z,22.13
2023-04-15T20:21:41.868Z,21.33
2023-04-15T20:24:09.471Z,19.27
2023-04-15T20:26:36.947Z,19.55
2023-04-15T20:29:05.148Z,19.58
2023-04-15T20:31:34.007Z,19.95
2023-04-15T20:34:01.634Z,18.77
2023-04-15T20:36:29.110Z,18.33
2023-04-15T20:38:56.537Z,19.35
2023-04-15T20:41:23.921Z,17.85
2023-04-15T20:43:51.434Z,17.55
2023-04-15T20:46:21.356Z,21.52
2023-04-15T20:48:49.398Z,23.52
2023-04-15T20:51:16.969Z,21.98
2023-04-15T20:53:44.485Z,19.48
2023-04-15T20:56:11.949Z,22.27
2023-04-15T20:58:39.429Z,19.88
2023-04-15T21:01:07.020Z,22.85
2023-04-15T21:03:34.847Z,23.70
2023-04-15T21:06:02.375Z,23.00
2023-04-15T21:08:30.612Z,24.13
2023-04-15T21:10:58.045Z,22.10
2023-04-15T21:13:25.603Z,20.33
2023-04-15T21:15:55.822Z,18.10
2023-04-15T21:18:23.733Z,17.75
2023-04-15T21:21:01.263Z,19.17
2023-04-15T21:23:35.811Z,40.70
2023-04-15T21:26:03.302Z,26.88
2023-04-15T21:28:30.891Z,18.17
2023-04-15T21:30:59.231Z,15.50
2023-04-15T21:33:27.224Z,14.38
2023-04-15T21:35:54.821Z,12.85
2023-04-15T21:38:23.540Z,11.93
2023-04-15T21:40:51.233Z,39.78
2023-04-15T21:43:18.818Z,22.73
2023-04-15T21:46:20.908Z,15.40
2023-04-15T21:48:34.036Z,17.05
2023-04-15T21:51:01.909Z,16.98
2023-04-15T21:53:29.375Z,19.48
2023-04-15T21:55:56.951Z,17.40
2023-04-15T21:58:24.453Z,19.75
2023-04-15T22:00:52.730Z,16.65
2023-04-15T22:03:20.323Z,11.93
2023-04-15T22:05:47.872Z,10.43
2023-04-15T22:08:15.464Z,11.32
2023-04-15T22:10:43.007Z,12.43
2023-04-15T22:13:11.162Z,11.18
2023-04-15T22:15:38.990Z,11.95
2023-04-15T22:18:06.503Z,12.60
2023-04-15T22:20:34.095Z,12.85
2023-04-15T22:23:03.848Z,13.30
2023-04-15T22:25:31.612Z,11.80
2023-04-15T22:27:59.051Z,11.50
2023-04-15T22:30:26.452Z,11.00
2023-04-15T22:32:53.869Z,12.88
2023-04-15T22:35:21.317Z,12.02
2023-04-15T22:37:48.924Z,12.65
2023-04-15T22:40:16.492Z,11.63
2023-04-15T22:42:44.954Z,11.25
2023-04-15T22:45:12.424Z,11.00
2023-04-15T22:47:39.897Z,10.15
2023-04-15T22:50:07.864Z,10.80
2023-04-15T22:52:35.910Z,15.95
2023-04-15T22:55:04.766Z,11.48
2023-04-15T22:57:32.250Z,12.95
2023-04-15T22:59:59.639Z,11.50
2023-04-15T23:02:27.379Z,11.30
2023-04-15T23:04:55.795Z,10.20
2023-04-15T23:07:23.359Z,11.00
2023-04-15T23:09:51.947Z,10.43
2023-04-15T23:12:19.413Z,10.70
2023-04-15T23:14:47.111Z,12.35
2023-04-15T23:17:14.537Z,10.85
2023-04-15T23:19:42.149Z,10.20
2023-04-15T23:22:12.039Z,10.07
2023-04-15T23:24:39.662Z,10.77
2023-04-15T23:27:07.130Z,12.00
2023-04-15T23:29:34.684Z,9.73
2023-04-15T23:32:02.282Z,10.35
2023-04-15T23:34:30.121Z,9.45
2023-04-15T23:36:57.794Z,9.98
2023-04-15T23:39:25.775Z,11.05
2023-04-15T23:41:53.862Z,9.98
2023-04-15T23:44:21.414Z,9.70
2023-04-15T23:46:49.037Z,9.90
2023-04-15T23:49:20.122Z,10.07
2023-04-15T23:51:47.983Z,9.90
2023-04-15T23:54:15.739Z,10.13
2023-04-15T23:56:43.372Z,9.48
2023-04-15T23:59:11.204Z,10.05
